Time;durP1;ratioP1;P1;durP2;ratioP2;P2;SDS_P1;SDS_P2;PMS_P1;PMS_P2;Temp;Humidity;BMP_temperature;BMP_pressure;BME280_temperature;BME280_humidity;BME280_pressure;Samples;Min_cycle;Max_cycle;Signal;HPM_P1;HPM_P2
2023/12/01 00:03:39;;;;;;;318.20;168.20;;;;;;;-4.69;90.32;97207.44;436201;1248;107596;-40
2023/12/01 00:13:46;;;;;;;310.40;162.60;;;;;;;-4.71;90.02;97209.25;436345;1253;99205;-39
2023/12/01 00:23:53;;;;;;;344.70;164.60;;;;;;;-4.63;90.02;97215.95;436424;1248;108737;-40
2023/12/01 00:34:01;;;;;;;403.80;199.80;;;;;;;-4.57;90.31;97224.04;436307;1253;97941;-39
2023/12/01 00:44:09;;;;;;;438.60;213.60;;;;;;;-4.85;89.82;97213.48;436027;1261;476286;-40
2023/12/01 00:54:16;;;;;;;410.40;202.20;;;;;;;-5.08;89.88;97229.46;436218;1253;107351;-40
2023/12/01 01:04:23;;;;;;;402.70;192.90;;;;;;;-5.25;90.05;97220.33;436302;1261;99317;-40
2023/12/01 01:14:31;;;;;;;300.10;157.70;;;;;;;-5.50;89.60;97244.13;436387;1251;111717;-40
2023/12/01 01:24:38;;;;;;;288.40;153.20;;;;;;;-5.64;89.41;97217.59;436128;1253;109351;-39
2023/12/01 01:34:45;;;;;;;252.50;136.70;;;;;;;-5.50;90.03;97207.55;436294;1248;99219;-39
2023/12/01 01:44:52;;;;;;;223.80;119.40;;;;;;;-5.27;90.39;97224.25;436361;1252;108348;-42
2023/12/01 01:54:58;;;;;;;218.00;113.10;;;;;;;-5.13;89.93;97223.00;436348;1251;99195;-39
2023/12/01 02:15:12;;;;;;;202.80;107.50;;;;;;;-4.93;90.20;97235.02;437117;1244;107042;-38
2023/12/01 02:25:17;;;;;;;317.30;155.20;;;;;;;-4.91;90.00;97247.06;436144;1248;99211;-40
2023/12/01 02:35:29;;;;;;;383.50;193.70;;;;;;;-5.03;90.14;97241.39;436261;1252;107955;-39
2023/12/01 02:45:37;;;;;;;413.00;215.10;;;;;;;-5.04;90.66;97210.98;436178;1254;98865;-41
2023/12/01 03:05:50;;;;;;;405.60;214.50;;;;;;;-5.08;90.69;97254.55;436123;1248;107121;-39
2023/12/01 03:15:57;;;;;;;346.80;200.40;;;;;;;-5.19;90.42;97262.45;436154;1253;98002;-39
2023/12/01 03:26:05;;;;;;;412.80;242.90;;;;;;;-5.05;90.54;97257.45;436136;1253;108733;-39
2023/12/01 03:36:12;;;;;;;397.40;222.70;;;;;;;-4.81;91.06;97267.14;436047;1248;99212;-40
2023/12/01 03:46:19;;;;;;;381.80;197.90;;;;;;;-4.53;91.23;97245.56;436110;1248;111276;-39
2023/12/01 03:56:25;;;;;;;359.60;191.60;;;;;;;-4.38;90.92;97226.84;436159;1252;109231;-39
2023/12/01 04:16:39;;;;;;;402.90;198.60;;;;;;;-4.39;90.94;97198.62;436365;1251;111019;-40
2023/12/01 04:26:48;;;;;;;392.50;188.70;;;;;;;-4.87;90.04;97230.77;436203;1248;108026;-40
2023/12/01 04:36:56;;;;;;;412.10;200.90;;;;;;;-5.19;90.15;97227.23;436190;1248;99257;-39
2023/12/01 04:47:03;;;;;;;500.20;245.10;;;;;;;-5.32;90.55;97235.44;436316;1248;107246;-40
2023/12/01 04:57:10;;;;;;;409.00;229.90;;;;;;;-5.20;90.87;97229.71;436263;1248;97985;-40
2023/12/01 05:07:17;;;;;;;392.00;218.20;;;;;;;-4.96;91.10;97229.99;436342;1252;110815;-40
2023/12/01 05:17:24;;;;;;;373.60;188.80;;;;;;;-4.70;91.05;97244.34;436131;1252;108331;-39
2023/12/01 05:27:31;;;;;;;426.90;210.10;;;;;;;-4.64;90.72;97254.02;436169;1248;99234;-39
2023/12/01 05:37:37;;;;;;;422.60;203.30;;;;;;;-4.79;90.75;97253.11;436223;1252;108670;-38
2023/12/01 05:47:45;;;;;;;436.30;210.50;;;;;;;-4.96;90.65;97268.67;436248;1248;99924;-39
2023/12/01 05:57:54;;;;;;;469.20;227.00;;;;;;;-5.08;90.64;97287.90;436341;1248;110418;-38
2023/12/01 06:08:02;;;;;;;410.60;204.40;;;;;;;-5.15;90.80;97299.45;436255;1253;107031;-39
2023/12/01 06:18:09;;;;;;;328.40;179.90;;;;;;;-5.18;90.47;97310.25;436305;1248;99317;-40
2023/12/01 06:28:16;;;;;;;324.80;178.50;;;;;;;-5.18;90.38;97310.09;436281;1253;107257;-43
2023/12/01 06:38:23;;;;;;;365.30;176.40;;;;;;;-5.13;90.29;97305.05;436273;1248;97978;-41
2023/12/01 06:48:29;;;;;;;411.30;198.30;;;;;;;-5.08;90.65;97304.34;438099;1250;112004;-40
2023/12/01 06:58:36;;;;;;;423.50;199.30;;;;;;;-5.05;90.67;97311.56;436482;1248;108575;-39
2023/12/01 07:08:43;;;;;;;475.80;233.70;;;;;;;-5.00;90.73;97311.20;436206;1248;98002;-40
2023/12/01 07:18:51;;;;;;;483.70;236.70;;;;;;;-4.70;91.53;97327.94;436308;1249;112841;-40
2023/12/01 07:28:58;;;;;;;340.40;185.60;;;;;;;-4.51;91.17;97331.20;436204;1261;107844;-39
2023/12/01 07:39:05;;;;;;;308.30;164.70;;;;;;;-4.30;90.90;97336.60;436298;1253;99205;-38
2023/12/01 07:49:13;;;;;;;402.80;197.90;;;;;;;-3.91;91.47;97329.70;436365;1253;107115;-39
2023/12/01 07:59:21;;;;;;;405.10;190.80;;;;;;;-3.63;91.58;97341.29;436343;1248;118276;-40
2023/12/01 08:19:35;;;;;;;379.70;187.80;;;;;;;-3.33;91.17;97338.74;436261;1248;107638;-40
2023/12/01 08:49:57;;;;;;;231.70;117.40;;;;;;;-2.39;91.77;97381.46;436248;1254;99235;-43
2023/12/01 09:00:04;;;;;;;299.10;142.20;;;;;;;-2.07;91.92;97398.70;436444;1248;111315;-39
2023/12/01 09:10:09;;;;;;;310.60;145.50;;;;;;;-1.88;92.08;97395.64;436458;1248;107275;-39
2023/12/01 09:30:20;;;;;;;279.70;133.60;;;;;;;-1.73;91.75;97403.65;436558;1253;110756;-42
2023/12/01 09:40:27;;;;;;;271.20;130.70;;;;;;;-1.70;91.89;97403.61;436699;1249;106794;-39
2023/12/01 09:50:35;;;;;;;189.20;97.60;;;;;;;-1.66;91.61;97402.95;436851;1248;98044;-39
2023/12/01 10:00:42;;;;;;;178.90;95.50;;;;;;;-1.45;91.68;97399.94;436460;1251;111642;-40
2023/12/01 10:10:49;;;;;;;251.00;123.30;;;;;;;-1.11;91.83;97385.35;436301;1248;107396;-39
2023/12/01 10:31:06;;;;;;;366.10;175.90;;;;;;;-1.05;91.48;97392.34;436219;1253;110640;-40
2023/12/01 10:41:14;;;;;;;356.80;173.50;;;;;;;-1.12;91.35;97386.59;436594;1253;106919;-38
2023/12/01 10:51:22;;;;;;;321.40;153.90;;;;;;;-1.11;91.49;97386.35;436371;1253;99241;-40
2023/12/01 11:11:38;;;;;;;250.40;119.80;;;;;;;-1.08;91.42;97401.18;436341;1251;107905;-40
2023/12/01 11:21:44;;;;;;;;;;;;;;;-1.09;91.51;97396.42;436290;1253;97947;-40
2023/12/01 11:31:52;;;;;;;309.60;140.80;;;;;;;-1.09;91.63;97392.33;436343;1252;107863;-40
2023/12/01 11:42:17;;;;;;;296.50;134.70;;;;;;;-1.10;91.51;97402.24;436459;1250;99215;-39
2023/12/01 11:52:24;;;;;;;287.60;133.00;;;;;;;-1.33;91.42;97416.39;436329;1253;110465;-40
2023/12/01 12:02:32;;;;;;;253.90;118.00;;;;;;;-1.42;91.47;97412.70;436522;1253;107653;-40
2023/12/01 12:12:40;;;;;;;215.70;109.30;;;;;;;-1.41;91.53;97412.42;436374;1251;99685;-39
2023/12/01 12:22:46;;;;;;;185.00;97.10;;;;;;;-1.21;91.49;97402.21;436323;1252;113598;-39
2023/12/01 12:32:53;;;;;;;247.20;113.80;;;;;;;-0.96;91.99;97410.35;436527;1251;109314;-39
2023/12/01 12:43:02;;;;;;;254.30;112.90;;;;;;;-1.07;91.80;97410.70;436033;1253;377068;-40
2023/12/01 12:53:08;;;;;;;249.80;113.10;;;;;;;-1.32;91.60;97417.84;436315;1253;106950;-40
2023/12/01 13:03:16;;;;;;;237.00;108.30;;;;;;;-1.46;91.62;97413.88;436296;1253;99723;-40
2023/12/01 13:23:30;;;;;;;176.70;89.70;;;;;;;-1.29;91.62;97388.42;436200;1252;108821;-40
2023/12/01 13:33:37;;;;;;;229.90;104.40;;;;;;;-1.21;91.81;97378.19;436291;1251;99222;-40
2023/12/01 13:53:51;;;;;;;240.50;110.40;;;;;;;-1.32;91.87;97412.73;436121;1253;99323;-41
2023/12/01 14:03:59;;;;;;;229.20;102.70;;;;;;;-1.52;91.68;97423.71;436288;1251;112892;-40
2023/12/01 14:14:06;;;;;;;174.40;90.10;;;;;;;-1.61;91.78;97426.89;436313;1248;108510;-40
2023/12/01 14:24:14;;;;;;;157.10;76.70;;;;;;;-1.60;91.71;97446.61;436375;1252;97966;-40
2023/12/01 14:34:22;;;;;;;168.30;82.10;;;;;;;-1.73;91.69;97444.88;436233;1254;108435;-40
2023/12/01 14:44:30;;;;;;;184.70;84.50;;;;;;;-1.84;91.97;97466.09;436307;1252;98801;-40
2023/12/01 14:54:35;;;;;;;172.40;81.40;;;;;;;-1.96;92.03;97465.77;436450;1247;111848;-40
2023/12/01 15:04:43;;;;;;;177.40;81.70;;;;;;;-2.14;91.80;97448.85;436338;1253;108295;-40
2023/12/01 15:14:49;;;;;;;141.60;71.20;;;;;;;-2.21;91.85;97451.02;436185;1251;99109;-41
2023/12/01 15:24:55;;;;;;;143.50;70.10;;;;;;;-2.17;91.93;97451.82;436408;1254;112025;-40
2023/12/01 15:35:02;;;;;;;130.50;63.20;;;;;;;-2.09;92.00;97460.23;436320;1251;109254;-40
2023/12/01 15:45:11;;;;;;;189.80;84.80;;;;;;;-2.01;92.32;97465.68;436517;1253;97979;-40
2023/12/01 15:55:19;;;;;;;191.40;86.70;;;;;;;-2.04;92.47;97466.33;436472;1250;111573;-40
2023/12/01 16:05:24;;;;;;;171.70;79.60;;;;;;;-2.14;92.44;97482.31;436386;1253;109356;-40
2023/12/01 16:15:31;;;;;;;177.90;82.10;;;;;;;-2.20;92.37;97478.33;436300;1248;98829;-39
2023/12/01 16:45:45;;;;;;;171.40;82.90;;;;;;;-2.02;92.64;97503.96;436279;1250;111298;-40
2023/12/01 16:55:55;;;;;;;222.30;97.50;;;;;;;-2.02;92.61;97492.21;436303;1251;108377;-40
2023/12/01 17:06:02;;;;;;;227.10;102.30;;;;;;;-2.18;92.51;97473.13;436511;1252;99212;-39
2023/12/01 17:16:10;;;;;;;181.10;86.90;;;;;;;-2.23;92.54;97489.23;436174;1254;112056;-39
2023/12/01 17:26:15;;;;;;;157.80;74.70;;;;;;;-2.19;92.64;97510.40;436216;1252;107857;-40
2023/12/01 17:56:34;;;;;;;168.00;72.70;;;;;;;-2.19;93.16;97492.63;436538;1253;99243;-39
2023/12/01 18:06:40;;;;;;;105.80;55.90;;;;;;;-2.19;92.94;97498.96;436310;1261;113901;-39
2023/12/01 18:16:49;;;;;;;96.90;49.80;;;;;;;-2.15;92.89;97482.29;436178;1248;107625;-40
2023/12/01 18:26:55;;;;;;;135.00;62.00;;;;;;;-2.08;93.14;97477.21;436305;1253;98935;-40
2023/12/01 18:37:02;;;;;;;199.50;84.20;;;;;;;-2.08;93.28;97469.02;436344;1253;108173;-39
2023/12/01 18:57:13;;;;;;;119.10;65.80;;;;;;;-2.15;93.25;97477.95;436273;1254;111555;-39
2023/12/01 19:17:25;;;;;;;119.60;54.90;;;;;;;-2.00;93.16;97492.19;436226;1254;99441;-39
2023/12/01 19:27:32;;;;;;;126.30;58.80;;;;;;;-2.07;93.28;97495.18;436293;1261;107833;-39
2023/12/01 19:37:41;;;;;;;135.10;65.40;;;;;;;-2.16;93.29;97502.98;436359;1261;99330;-39
2023/12/01 19:47:48;;;;;;;107.40;56.60;;;;;;;-2.20;93.17;97519.40;436266;1248;111668;-39
2023/12/01 19:57:55;;;;;;;81.90;43.30;;;;;;;-2.13;93.28;97531.61;436309;1253;107347;-38
2023/12/01 20:08:05;;;;;;;77.70;42.10;;;;;;;-2.12;93.51;97511.95;436429;1248;99240;-41
2023/12/01 20:18:11;;;;;;;118.40;61.80;;;;;;;-2.15;93.38;97508.90;436321;1254;107828;-39
2023/12/01 20:28:19;;;;;;;130.70;63.10;;;;;;;-2.25;93.59;97518.09;436303;1254;97979;-39
2023/12/01 20:38:26;;;;;;;114.80;59.10;;;;;;;-2.29;93.52;97506.33;436235;1261;114165;-39
2023/12/01 20:48:34;;;;;;;91.90;47.50;;;;;;;-2.26;93.50;97511.89;436306;1248;108265;-41
2023/12/01 20:58:40;;;;;;;93.40;48.20;;;;;;;-2.18;93.48;97528.34;436255;1261;99318;-39
2023/12/01 21:18:53;;;;;;;112.10;54.90;;;;;;;-2.30;93.63;97506.85;436214;1248;99205;-38
2023/12/01 21:29:01;;;;;;;105.90;51.90;;;;;;;-2.31;93.49;97514.20;436090;1252;111123;-38
2023/12/01 21:49:13;;;;;;;107.40;50.30;;;;;;;-2.53;93.96;97496.98;436303;1248;118328;-41
2023/12/01 22:09:24;;;;;;;56.90;26.50;;;;;;;-2.76;93.82;97516.21;436058;1254;99183;-39
2023/12/01 22:19:32;;;;;;;77.30;34.20;;;;;;;-2.89;94.06;97516.13;436232;1248;111053;-40
2023/12/01 22:49:50;;;;;;;49.70;22.00;;;;;;;-3.07;94.07;97522.33;436067;1254;109389;-38
2023/12/01 22:59:57;;;;;;;47.40;24.80;;;;;;;-3.13;94.20;97549.82;436174;1251;99215;-39
2023/12/01 23:10:05;;;;;;;57.20;27.80;;;;;;;-3.20;93.87;97561.34;436297;1253;110945;-41
2023/12/01 23:20:13;;;;;;;46.20;25.20;;;;;;;-3.19;93.74;97538.06;436098;1254;109584;-40
2023/12/01 23:40:27;;;;;;;38.10;19.70;;;;;;;-3.11;93.81;97534.73;436151;1248;111505;-40
2023/12/01 23:50:34;;;;;;;49.60;21.70;;;;;;;-3.18;93.99;97507.97;436169;1248;107189;-40
